Penfield, New York
Current Conditions -  °F | °C
As of 4:54 AM on Sunday 23 Nov 2014 (Local Time) from KROC Reporting Station
Overcast Overcast  
Wind Chill: 41°   Ceiling: 3400
Heat Index: 45°   Visibility: 10mi
Dew Point: 40°   Wind: 7mph
Humidity: 82%   Direction: 210°SSW
Pressure: 30.01"   Gusts: NA
Location:  43.13°N, 77.48°W
Report Text: KROC 230954Z 21006KT 10SM OVC034 07/04 A3001 RMK AO2 SLP167 T00720044
Loading
Personal Weather Stations






























Interactive Weather Map New forecast layout! Learn more

10-Day Weather Forecast

Advertisements
Track Severe Weather on mobile